History for KNYNEWYO254

Hell's Kitchen, New York, NY — Current Conditions
Daily Summary for August 22, 2017
  Current: High: Low: Average:
Temperature: 88.2°F 88.9°F 79.9°F 84.4°F
Dew Point: 72.4°F 75.1°F 70.6°F 72.5°F
Humidity: 59% 75% 58% 69%
Wind Speed: - 0.0mph - 0.0mph
Wind Gust: - 0.0mph - -
Wind: North - - North
Pressure: 29.78in 30.10in 29.78in -
Precipitation: 0.00in      
Statistics for the rest of the month
    High: Low: Average:
Temperature:   106.7°F 70.3°F 83.5°F
Dew Point:   77.6°F 53.5°F 65.7°F
Humidity:   83.0% 29.0% 59.3%
Wind Speed:   0.0mph from the North - 0.0mph
Wind Gust:   0.0mph from the North - -
Wind:   - - North
Pressure:   30.25in 29.76in -
Precipitation:   0.00in    
KNYNEWYO254 Weather Graph
Tabular Data for August 22, 2017
Time Temp. Heat Index Dew Point Pressure Wind Gust Humidity Rainfall
00:13 82.4°F 86.7°F 71.0°F 30.10in - 68% -
00:37 82.6°F 86.9°F 70.8°F 30.09in - 67% -
00:47 82.2°F 86.4°F 70.8°F 30.09in - 68% -
01:09 82.2°F 86.4°F 70.8°F 30.09in - 68% -
01:19 81.9°F 86.0°F 70.9°F 30.08in - 69% -
01:39 81.5°F 85.3°F 70.6°F 30.07in - 69% -
02:02 81.5°F 85.5°F 71.0°F 30.06in - 70% -
02:12 82.0°F 86.2°F 71.1°F 30.06in - 69% -
02:32 81.9°F 86.0°F 70.9°F 30.06in - 69% -
02:42 81.5°F 85.5°F 71.0°F 30.06in - 70% -
03:02 81.5°F 85.7°F 71.4°F 30.06in - 71% -
03:12 81.5°F 85.7°F 71.4°F 30.06in - 71% -
03:32 81.3°F 85.3°F 71.2°F 30.05in - 71% -
03:42 81.1°F 85.2°F 71.5°F 30.04in - 72% -
04:13 80.8°F 84.6°F 71.1°F 30.04in - 72% -
04:33 80.6°F 84.4°F 71.3°F 30.04in - 73% -
04:43 80.6°F 84.6°F 71.7°F 30.03in - 74% -
05:09 80.8°F 84.8°F 71.5°F 30.03in - 73% -
05:19 80.6°F 84.6°F 71.7°F 30.03in - 74% -
05:31 80.4°F 84.2°F 71.6°F 30.03in - 74% -
05:47 80.6°F 84.6°F 71.7°F 30.03in - 74% -
05:59 80.2°F 83.9°F 71.8°F 30.03in - 75% -
06:19 80.1°F 83.8°F 71.6°F 30.03in - 75% -
06:40 79.9°F - 71.4°F 30.03in - 75% -
06:50 80.2°F 83.9°F 71.8°F 30.03in - 75% -
07:00 80.2°F 83.9°F 71.8°F 30.03in - 75% -
07:10 80.6°F 84.7°F 72.1°F 30.03in - 75% -
07:42 81.1°F 85.5°F 72.3°F 30.03in - 74% -
08:12 81.9°F 87.4°F 73.3°F 30.03in - 75% -
08:32 82.0°F 87.3°F 73.1°F 30.02in - 74% -
08:46 82.2°F 87.8°F 73.3°F 30.02in - 74% -
09:06 83.1°F 89.1°F 73.4°F 30.01in - 72% -
09:17 83.5°F 90.0°F 73.7°F 30.01in - 72% -
09:37 84.9°F 92.8°F 74.7°F 30.01in - 71% -
09:47 85.1°F 92.6°F 74.0°F 30.01in - 69% -
10:19 86.5°F 95.4°F 74.6°F 30.00in - 67% -
10:49 85.1°F 92.2°F 73.6°F 30.00in - 68% -
11:13 85.3°F 93.0°F 74.2°F 29.99in - 69% -
11:45 86.4°F 95.2°F 74.8°F 29.97in - 68% -
12:19 87.1°F 95.9°F 74.6°F 29.96in - 66% -
12:50 87.1°F 96.4°F 75.1°F 29.94in - 67% -
13:10 87.1°F 96.4°F 75.1°F 29.93in - 67% -
13:40 88.0°F 97.6°F 75.0°F 29.93in - 65% -
14:18 87.3°F 95.9°F 74.4°F 29.90in - 65% -
14:40 87.4°F 96.1°F 74.5°F 29.89in - 65% -
15:15 88.0°F 97.1°F 74.6°F 29.86in - 64% -
15:49 88.3°F 96.8°F 74.0°F 29.84in - 62% -
16:13 88.9°F 96.1°F 72.6°F 29.83in - 58% -
16:49 88.5°F 95.3°F 72.2°F 29.81in - 58% -
17:20 88.5°F 95.3°F 72.2°F 29.80in - 58% -
17:46 88.3°F 95.8°F 72.6°F 29.79in - 59% -
18:10 88.2°F 95.1°F 72.4°F 29.78in - 59% -
Comma Delimited File
Powered by Weather Underground, Inc.